CheckWX is a tool to help pilots better visualize weather data.  It is not intended as a substitute for an official pre-flight weather briefing.

10:08:06 UTC

LPCS TAF
Cascais Airport
Portugal
TAF LPCS 260800Z 2609/2618 VRB05KT 9999 BKN015 PROB40 TEMPO 2609/2612 5000 -RA BKN012 BECMG 2612/2615 34010KT SCT025

Jun-26@
09:00 UTC

Jun-26 @ 09:00 UTC

Jun-26@
12:00 UTC

Jun-26 @ 12:00 UTC

TAF LPCS 260800Z 2609/2618 VRB05KT 9999 BKN015
Wind
  • Variable at 5 KTS
Cloud Levels
  • Broken at 1,500' AGL

Jun-26@
09:00 UTC

Jun-26 @ 09:00 UTC

Jun-26@
12:00 UTC

Jun-26 @ 12:00 UTC

PROB40 TEMPO 2609/2612 5000 -RA BKN012

Temporary - 40% Likelihood

Temporary - 40% Likelihood during this time.

Conditions
Light Rain
Cloud Levels
  • Broken at 1,200' AGL

Jun-26@
12:00 UTC

Jun-26 @ 12:00 UTC

Jun-26@
18:00 UTC

Jun-26 @ 18:00 UTC

BECMG 2612/2615 34010KT SCT025

Becoming

Becoming Conditions expected by Wed, Jun 26, 2019 @ 15:00 UTC

Wind
  • 340° at 10 KTS
Cloud Levels
  • Scattered at 2,500' AGL